Maersk Dresden — DHAF — position and weather

sailwx.info

Track history (hours):
 
Tides and Currents Weather Stations Pressure Air Temp Water Temp Dewpoint Dewpoint Depression Visibility Wind Speed Wind Dir Waves Ship Positions

Maersk Dresden

Last reported at 2013-Jul-29 16:29 UTC. Time now 2014-Jul-28 12:27 UTC.
Position N 01°14' E 103°26'.
Warning: this ship's position is months out of date.

Length 292.1 m; beam 32.3 m; draft 13.5 m.

Type: Cargo ship. MMSI: 211237370.

Date/timePositionNaut miles runAvg speedWind from/ knotsBaromVisibWave heightAir tempDewpointWater temp
2013-Jul-29 16:29N 01°14' E 103°26'1010.2
2013-Jul-29 15:34N 01°12' E 103°35'10 9.6
2013-Jul-29 14:33N 01°15' E 103°44'2 2.3
2013-Jul-29 13:33N 01°16' E 103°46'0 0.0
2013-Jul-29 12:30N 01°16' E 103°46'0 0.0
2013-Jul-29 11:33N 01°16' E 103°46'0 0.0
2013-Jul-29 10:33N 01°16' E 103°46'0 0.0
2013-Jul-29 09:24N 01°16' E 103°46'0 0.0
2013-Jul-29 08:33N 01°16' E 103°46'0 0.0
2013-Jul-29 07:32N 01°16' E 103°46'0 0.0
2013-Jul-29 06:32N 01°16' E 103°46'0 0.0
2013-Jul-29 05:32N 01°16' E 103°46'0 0.0
2013-Jul-29 04:32N 01°16' E 103°46'0 0.0
2013-Jul-29 03:32N 01°16' E 103°46'0 0.0
2013-Jul-29 02:32N 01°16' E 103°46'0 0.0
2013-Jul-29 01:23N 01°16' E 103°46'0 0.0
2013-Jul-29 00:29N 01°16' E 103°46'0 0.0
2013-Jul-28 23:29N 01°16' E 103°46'0 0.0
2013-Jul-28 22:32N 01°16' E 103°46'0 0.0
2013-Jul-28 21:32N 01°16' E 103°46'0 0.0
2013-Jul-28 20:32N 01°16' E 103°46'0 0.0
2013-Jul-28 19:32N 01°16' E 103°46'0 0.0
2013-Jul-28 18:32N 01°16' E 103°46'0 0.0
2013-Jul-28 17:32N 01°16' E 103°46'0 0.0
2013-Jul-28 16:32N 01°16' E 103°46'0 0.0
2013-Jul-28 15:32N 01°16' E 103°46'0 0.0
2013-Jul-28 14:32N 01°16' E 103°46'0 0.0
2013-Jul-28 13:32N 01°16' E 103°46'0 0.0
2013-Jul-28 12:32N 01°16' E 103°46'0 0.0
2013-Jul-28 11:32N 01°16' E 103°46'0 0.0
2013-Jul-28 10:32N 01°16' E 103°46'0 0.0
2013-Jul-28 09:32N 01°16' E 103°46'0 0.0
2013-Jul-28 08:29N 01°16' E 103°46'0 0.0
2013-Jul-28 07:32N 01°16' E 103°46'4 3.6
2013-Jul-28 06:33N 01°14' E 103°43'7 7.3
2013-Jul-28 05:33N 01°13' E 103°36'6 5.7
2013-Jul-28 04:29N 01°10' E 103°31'9 9.5
2013-Jul-28 03:33N 01°14' E 103°23'  
Track history (hours):
 
Tides and Currents Weather Stations Pressure Air Temp Water Temp Dewpoint Dewpoint Depression Visibility Wind Speed Wind Dir Waves Ship Positions

Maersk Dresden

Last reported at 2013-Jul-29 16:29 UTC. Time now 2014-Jul-28 12:27 UTC.
Position N 01°14' E 103°26'.
Warning: this ship's position is months out of date.

Length 292.1 m; beam 32.3 m; draft 13.5 m.

Type: Cargo ship. MMSI: 211237370.

Date/timePositionNaut miles runAvg speedWind from/ knotsBaromVisibWave heightAir tempDewpointWater temp
2013-Jul-29 16:29N 01°14' E 103°26'1010.2
2013-Jul-29 15:34N 01°12' E 103°35'10 9.6
2013-Jul-29 14:33N 01°15' E 103°44'2 2.3
2013-Jul-29 13:33N 01°16' E 103°46'0 0.0
2013-Jul-29 12:30N 01°16' E 103°46'0 0.0
2013-Jul-29 11:33N 01°16' E 103°46'0 0.0
2013-Jul-29 10:33N 01°16' E 103°46'0 0.0
2013-Jul-29 09:24N 01°16' E 103°46'0 0.0
2013-Jul-29 08:33N 01°16' E 103°46'0 0.0
2013-Jul-29 07:32N 01°16' E 103°46'0 0.0
2013-Jul-29 06:32N 01°16' E 103°46'0 0.0
2013-Jul-29 05:32N 01°16' E 103°46'0 0.0
2013-Jul-29 04:32N 01°16' E 103°46'0 0.0
2013-Jul-29 03:32N 01°16' E 103°46'0 0.0
2013-Jul-29 02:32N 01°16' E 103°46'0 0.0
2013-Jul-29 01:23N 01°16' E 103°46'0 0.0
2013-Jul-29 00:29N 01°16' E 103°46'0 0.0
2013-Jul-28 23:29N 01°16' E 103°46'0 0.0
2013-Jul-28 22:32N 01°16' E 103°46'0 0.0
2013-Jul-28 21:32N 01°16' E 103°46'0 0.0
2013-Jul-28 20:32N 01°16' E 103°46'0 0.0
2013-Jul-28 19:32N 01°16' E 103°46'0 0.0
2013-Jul-28 18:32N 01°16' E 103°46'0 0.0
2013-Jul-28 17:32N 01°16' E 103°46'0 0.0
2013-Jul-28 16:32N 01°16' E 103°46'0 0.0
2013-Jul-28 15:32N 01°16' E 103°46'0 0.0
2013-Jul-28 14:32N 01°16' E 103°46'0 0.0
2013-Jul-28 13:32N 01°16' E 103°46'0 0.0
2013-Jul-28 12:32N 01°16' E 103°46'0 0.0
2013-Jul-28 11:32N 01°16' E 103°46'0 0.0
2013-Jul-28 10:32N 01°16' E 103°46'0 0.0
2013-Jul-28 09:32N 01°16' E 103°46'0 0.0
2013-Jul-28 08:29N 01°16' E 103°46'0 0.0
2013-Jul-28 07:32N 01°16' E 103°46'4 3.6
2013-Jul-28 06:33N 01°14' E 103°43'7 7.3
2013-Jul-28 05:33N 01°13' E 103°36'6 5.7
2013-Jul-28 04:29N 01°10' E 103°31'9 9.5
2013-Jul-28 03:33N 01°14' E 103°23'  

Dump ship's entire track history